Map

Track Data

SID SEASON NUMBER BASIN SUBBASIN NAME ISO_TIME NATURE LAT LON WMO_WIND WMO_PRES WMO_AGENCY TRACK_TYPE DIST2LAND LANDFALL IFLAG USA_AGENCY USA_ATCF_ID USA_LAT USA_LON USA_RECORD USA_STATUS USA_WIND USA_PRES USA_SSHS USA_R34_NE USA_R34_SE USA_R34_SW USA_R34_NW USA_R50_NE USA_R50_SE USA_R50_SW USA_R50_NW USA_R64_NE USA_R64_SE USA_R64_SW USA_R64_NW USA_POCI USA_ROCI USA_RMW USA_EYE TOKYO_LAT TOKYO_LON TOKYO_GRADE TOKYO_WIND TOKYO_PRES TOKYO_R50_DIR TOKYO_R50_LONG TOKYO_R50_SHORT TOKYO_R30_DIR TOKYO_R30_LONG TOKYO_R30_SHORT TOKYO_LAND CMA_LAT CMA_LON CMA_CAT CMA_WIND CMA_PRES HKO_LAT HKO_LON HKO_CAT HKO_WIND HKO_PRES NEWDELHI_LAT NEWDELHI_LON NEWDELHI_GRADE NEWDELHI_WIND NEWDELHI_PRES NEWDELHI_CI NEWDELHI_DP NEWDELHI_POCI REUNION_LAT REUNION_LON REUNION_TYPE REUNION_WIND REUNION_PRES REUNION_TNUM REUNION_CI REUNION_RMW REUNION_R34_NE REUNION_R34_SE REUNION_R34_SW REUNION_R34_NW REUNION_R50_NE REUNION_R50_SE REUNION_R50_SW REUNION_R50_NW REUNION_R64_NE REUNION_R64_SE REUNION_R64_SW REUNION_R64_NW BOM_LAT BOM_LON BOM_TYPE BOM_WIND BOM_PRES BOM_TNUM BOM_CI BOM_RMW BOM_R34_NE BOM_R34_SE BOM_R34_SW BOM_R34_NW BOM_R50_NE BOM_R50_SE BOM_R50_SW BOM_R50_NW BOM_R64_NE BOM_R64_SE BOM_R64_SW BOM_R64_NW BOM_ROCI BOM_POCI BOM_EYE BOM_POS_METHOD BOM_PRES_METHOD NADI_LAT NADI_LON NADI_CAT NADI_WIND NADI_PRES WELLINGTON_LAT WELLINGTON_LON WELLINGTON_WIND WELLINGTON_PRES DS824_LAT DS824_LON DS824_STAGE DS824_WIND DS824_PRES TD9636_LAT TD9636_LON TD9636_STAGE TD9636_WIND TD9636_PRES TD9635_LAT TD9635_LON TD9635_WIND TD9635_PRES TD9635_ROCI NEUMANN_LAT NEUMANN_LON NEUMANN_CLASS NEUMANN_WIND NEUMANN_PRES MLC_LAT MLC_LON MLC_CLASS MLC_WIND MLC_PRES USA_GUST BOM_GUST BOM_GUST_PER REUNION_GUST REUNION_GUST_PER USA_SEAHGT USA_SEARAD_NE USA_SEARAD_SE USA_SEARAD_SW USA_SEARAD_NW STORM_SPEED STORM_DIR
1956028S10122 1956 10 SI WA NOT_NAMED 1956-01-27 23:00:00 NR -10.2000 122.100 main 144 133 __________O___ -1 -10.2000 122.100 7 5 267
1956028S10122 1956 10 SI WA NOT_NAMED 1956-01-28 00:00:00 TS -10.2045 122.024 main 133 122 O________OP___ jtwc_sh SH151956 -10.2000 122.000 -1 -10.2000 122.000 TC -10.2090 122.047 7 5 273
1956028S10122 1956 10 SI WA NOT_NAMED 1956-01-28 01:00:00 TS -10.1913 121.920 bom main 122 111 P_____O__PP___ SH151956 -10.2188 121.945 -1 -10.0000 121.600 -10.2188 121.945 TC -10.2183 121.995 7 4 265
1956028S10122 1956 10 SI WA NOT_NAMED 1956-01-28 03:00:00 TS -10.2230 121.806 main 111 101 P_____P__PP___ SH151956 -10.2550 121.838 -1 -10.0950 121.545 -10.2550 121.838 TC -10.2391 121.890 7 3 250
1956028S10122 1956 10 SI WA NOT_NAMED 1956-01-28 06:00:00 TS -10.2822 121.662 main 104 83 O_____P__OP___ jtwc_sh SH151956 -10.3000 121.700 -1 -10.2364 121.461 -10.3000 121.700 TC -10.2808 121.737 7 3 245
1956028S10122 1956 10 SI WA NOT_NAMED 1956-01-28 09:00:00 TS -10.3470 121.542 main 83 83 P_____P__PP___ SH151956 -10.3350 121.600 -1 -10.3751 121.377 -10.3350 121.600 TC -10.3429 121.591 7 3 237
1956028S10122 1956 10 SI WA NOT_NAMED 1956-01-28 11:00:00 TS -10.4022 121.473 main 88 79 P_____P__PO___ SH151956 -10.3719 121.536 -1 -10.4652 121.321 -10.3719 121.536 TC -10.4000 121.500 7 3 230
1956028S10122 1956 10 SI WA NOT_NAMED 1956-01-28 12:00:00 TS -10.4358 121.437 main 79 73 O_____P__OP___ jtwc_sh SH151956 -10.4000 121.500 -1 -10.5093 121.292 -10.4000 121.500 TC -10.4341 121.456 7 4 225
1956028S10122 1956 10 SI WA NOT_NAMED 1956-01-28 15:00:00 TS -10.5691 121.309 main 79 70 P_____P__PP___ SH151956 -10.5425 121.350 -1 -10.6375 121.206 -10.5425 121.350 TC -10.5538 121.331 7 4 222
1956028S10122 1956 10 SI WA NOT_NAMED 1956-01-28 18:00:00 TS -10.7114 121.182 main 78 78 O_____P__OP___ jtwc_sh SH151956 -10.7000 121.200 -1 -10.7580 121.117 -10.7000 121.200 TC -10.6877 121.210 7 3 221
1956028S10122 1956 10 SI WA NOT_NAMED 1956-01-28 21:00:00 TS -10.8261 121.078 main 80 80 P_____P__PP___ SH151956 -10.8075 121.100 -1 -10.8692 121.026 -10.8075 121.100 TC -10.8202 121.086 7 3 222
1956028S10122 1956 10 SI WA NOT_NAMED 1956-01-28 23:00:00 TS -10.8940 121.009 main 84 84 P_____P__PO___ SH151956 -10.8693 121.036 -1 -10.9373 120.964 -10.8693 121.036 TC -10.9000 121.000 7 3 228
1956028S10122 1956 10 SI WA NOT_NAMED 1956-01-29 00:00:00 TS -10.9294 120.967 main 84 80 O_____P__OP___ jtwc_sh SH151956 -10.9000 121.000 -1 -10.9693 120.932 -10.9000 121.000 TC -10.9305 120.952 7 3 231
1956028S10122 1956 10 SI WA NOT_NAMED 1956-01-29 01:00:00 TS -10.9648 120.922 bom main 89 84 P_____O__PP___ SH151956 -10.9360 120.956 -1 -11.0000 120.900 -10.9360 120.956 TC -10.9588 120.903 7 3 233
1956028S10122 1956 10 SI WA NOT_NAMED 1956-01-29 03:00:00 TS -11.0276 120.833 main 84 84 P_____P__PP___ SH151956 -11.0075 120.858 -1 -11.0572 120.835 -11.0075 120.858 TC -11.0104 120.802 7 3 236
1956028S10122 1956 10 SI WA NOT_NAMED 1956-01-29 06:00:00 TS -11.1099 120.698 main 92 90 O_____P__OP___ jtwc_sh SH151956 -11.1000 120.700 -1 -11.1359 120.732 -11.1000 120.700 TC -11.0803 120.649 7 3 241
1956028S10122 1956 10 SI WA NOT_NAMED 1956-01-29 09:00:00 TS -11.1738 120.564 main 101 100 P_____P__PP___ SH151956 -11.1500 120.550 -1 -11.2112 120.619 -11.1500 120.550 TC -11.1495 120.497 7 3 244
1956028S10122 1956 10 SI WA NOT_NAMED 1956-01-29 11:00:00 TS -11.2173 120.473 main 100 100 P_____P__PO___ SH151956 -11.1802 120.450 -1 -11.2625 120.537 -11.1802 120.450 TC -11.2000 120.400 7 3 243
1956028S10122 1956 10 SI WA NOT_NAMED 1956-01-29 12:00:00 TS -11.2405 120.429 main 101 101 O_____P__OP___ jtwc_sh SH151956 -11.2000 120.400 -1 -11.2891 120.494 -11.2000 120.400 TC -11.2201 120.366 7 3 238
1956028S10122 1956 10 SI WA NOT_NAMED 1956-01-29 15:00:00 TS -11.3237 120.295 main 114 114 P_____P__PP___ SH151956 -11.2850 120.250 -1 -11.3754 120.350 -11.2850 120.250 TC -11.2817 120.274 7 3 236
1956028S10122 1956 10 SI WA NOT_NAMED 1956-01-29 18:00:00 TS -11.4291 120.151 main 127 127 O_____P__OP___ jtwc_sh SH151956 -11.4000 120.100 -1 -11.4761 120.186 -11.4000 120.100 TC -11.3627 120.173 7 4 231
1956028S10122 1956 10 SI WA NOT_NAMED 1956-01-29 21:00:00 TS -11.5557 120.000 main 155 155 P_____P__PP___ SH151956 -11.5274 119.980 -1 -11.5971 119.997 -11.5274 119.980 TC -11.4848 120.032 7 4 230
1956028S10122 1956 10 SI WA NOT_NAMED 1956-01-29 23:00:00 TS -11.6616 119.875 main 169 169 P_____P__PO___ SH151956 -11.6359 119.873 -1 -11.6919 119.856 -11.6359 119.873 TC -11.6000 119.900 7 5 230
1956028S10122 1956 10 SI WA NOT_NAMED 1956-01-30 00:00:00 TS -11.7232 119.798 main 173 173 O_____P__OP___ jtwc_sh SH151956 -11.7000 119.800 -1 -11.7442 119.780 -11.7000 119.800 TC -11.6720 119.811 7 6 232
1956028S10122 1956 10 SI WA NOT_NAMED 1956-01-30 01:00:00 TS -11.7888 119.709 bom main 187 187 P_____O__PP___ SH151956 -11.7667 119.706 -1 -11.8000 119.700 -11.7667 119.706 TC -11.7519 119.713 7 7 233
1956028S10122 1956 10 SI WA NOT_NAMED 1956-01-30 03:00:00 TS -11.9370 119.507 main 205 205 P_____P__PP___ SH151956 -11.9200 119.480 -1 -11.9291 119.529 -11.9200 119.480 TC -11.9317 119.494 7 8 232
1956028S10122 1956 10 SI WA NOT_NAMED 1956-01-30 06:00:00 TS -12.1955 119.170 main 249 249 O_____P__OP___ jtwc_sh SH151956 -12.2000 119.100 -1 -12.1460 119.246 -12.2000 119.100 TC -12.2394 119.127 7 9 230
1956028S10122 1956 10 SI WA NOT_NAMED 1956-01-30 09:00:00 TS -12.4903 118.827 main 299 299 P_____P__PP___ SH151956 -12.5350 118.743 -1 -12.3869 118.935 -12.5350 118.743 TC -12.5735 118.746 7 9 228
1956028S10122 1956 10 SI WA NOT_NAMED 1956-01-30 11:00:00 TS -12.7000 118.598 main 329 329 P_____P__PO___ SH151956 -12.7781 118.511 -1 -12.5587 118.714 -12.7781 118.511 TC -12.8000 118.500 7 9 226
1956028S10122 1956 10 SI WA NOT_NAMED 1956-01-30 12:00:00 TS -12.8046 118.487 main 345 345 O_____P__OP___ jtwc_sh SH151956 -12.9000 118.400 -1 -12.6475 118.601 -12.9000 118.400 TC -12.9061 118.398 7 9 225
1956028S10122 1956 10 SI WA NOT_NAMED 1956-01-30 15:00:00 TS -13.1206 118.164 main 391 391 P_____P__PP___ SH151956 -13.2574 118.092 -1 -12.9235 118.248 -13.2574 118.092 TC -13.2304 118.105 7 9 225
1956028S10122 1956 10 SI WA NOT_NAMED 1956-01-30 18:00:00 TS -13.4364 117.841 main 437 437 O_____P__OP___ jtwc_sh SH151956 -13.6000 117.800 -1 -13.2106 117.882 -13.6000 117.800 TC -13.5592 117.818 7 9 225
1956028S10122 1956 10 SI WA NOT_NAMED 1956-01-30 21:00:00 TS -13.7541 117.513 main 491 491 P_____P__PP___ SH151956 -13.9074 117.515 -1 -13.5046 117.506 -13.9074 117.515 TC -13.8861 117.517 7 9 225
1956028S10122 1956 10 SI WA NOT_NAMED 1956-01-30 23:00:00 TS -13.9683 117.288 main 519 519 P_____P__PO___ SH151956 -14.1026 117.311 -1 -13.7023 117.253 -14.1026 117.311 TC -14.1000 117.300 7 9 225
1956028S10122 1956 10 SI WA NOT_NAMED 1956-01-31 00:00:00 TS -14.0840 117.173 main 534 534 O_____P__OP___ jtwc_sh SH151956 -14.2000 117.200 -1 -13.8012 117.127 -14.2000 117.200 TC -14.2058 117.182 7 10 224
1956028S10122 1956 10 SI WA NOT_NAMED 1956-01-31 01:00:00 TS -14.2027 117.054 bom main 548 548 P_____O__PP___ SH151956 -14.3000 117.078 -1 -13.9000 117.000 -14.3000 117.078 TC -14.3109 117.061 7 10 229
1956028S10122 1956 10 SI WA NOT_NAMED 1956-01-31 03:00:00 TS -14.3985 116.806 main 582 582 P_____P__PP___ SH151956 -14.5000 116.815 -1 -14.0756 116.783 -14.5000 116.815 TC -14.5186 116.809 7 9 232
1956028S10122 1956 10 SI WA NOT_NAMED 1956-01-31 06:00:00 TS -14.6908 116.417 main 630 629 O_____P__OP___ jtwc_sh SH151956 -14.8000 116.400 -1 -14.3406 116.458 -14.8000 116.400 TC -14.8224 116.409 7 10 232
1956028S10122 1956 10 SI WA NOT_NAMED 1956-01-31 09:00:00 TS -14.9846 116.033 main 630 611 P_____P__PP___ SH151956 -15.1074 116.007 -1 -14.6098 116.127 -15.1074 116.007 TC -15.1139 115.988 7 10 232
1956028S10122 1956 10 SI WA NOT_NAMED 1956-01-31 11:00:00 TS -15.1759 115.770 main 611 602 P_____P__PO___ SH151956 -15.3056 115.739 -1 -14.7925 115.900 -15.3056 115.739 TC -15.3000 115.700 7 10 233
1956028S10122 1956 10 SI WA NOT_NAMED 1956-01-31 12:00:00 TS -15.2684 115.637 main 604 589 O_____P__OP___ jtwc_sh SH151956 -15.4000 115.600 -1 -14.8850 115.784 -15.4000 115.600 TC -15.3886 115.563 7 10 236
1956028S10122 1956 10 SI WA NOT_NAMED 1956-01-31 15:00:00 TS -15.5316 115.224 main 592 573 P_____P__PP___ SH151956 -15.6574 115.165 -1 -15.1686 115.423 -15.6574 115.165 TC -15.6431 115.142 7 10 238
1956028S10122 1956 10 SI WA NOT_NAMED 1956-01-31 18:00:00 TS -15.7876 114.785 main 573 564 O_____P__OP___ jtwc_sh SH151956 -15.9000 114.700 -1 -15.4625 115.036 -15.9000 114.700 TC -15.8879 114.702 7 10 239
1956028S10122 1956 10 SI WA NOT_NAMED 1956-01-31 21:00:00 TS -16.0503 114.320 main 563 563 P_____P__PP___ SH151956 -16.1499 114.215 -1 -15.7688 114.618 -16.1499 114.215 TC -16.1324 114.233 7 11 240
1956028S10122 1956 10 SI WA NOT_NAMED 1956-01-31 23:00:00 TS -16.2285 113.992 main 568 564 P_____P__PO___ SH151956 -16.3166 113.875 -1 -15.9809 114.318 -16.3166 113.875 TC -16.3000 113.900 7 11 241
1956028S10122 1956 10 SI WA NOT_NAMED 1956-02-01 00:00:00 TS -16.3191 113.822 main 570 566 O_____P__OP___ jtwc_sh SH151956 -16.4000 113.700 -1 -16.0896 114.162 -16.4000 113.700 TC -16.3870 113.727 7 11 241
1956028S10122 1956 10 SI WA NOT_NAMED 1956-02-01 01:00:00 TS -16.4090 113.650 992 bom main 566 563 P_____O__PP___ SH151956 -16.4806 113.525 -1 -16.2000 114.000 992 -16.4806 113.525 TC -16.4749 113.550 7 12 242
1956028S10122 1956 10 SI WA NOT_NAMED 1956-02-01 03:00:00 TS -16.5982 113.285 main 569 566 P_____P__PP___ SH151956 -16.6424 113.165 -1 -16.4551 113.626 -16.6424 113.165 TC -16.6531 113.183 7 12 242
1956028S10122 1956 10 SI WA NOT_NAMED 1956-02-01 06:00:00 TS -16.8958 112.707 main 575 558 O_____P__OP___ jtwc_sh SH151956 -16.9000 112.600 -1 -16.8565 113.022 -16.9000 112.600 TC -16.9268 112.607 7 13 241
1956028S10122 1956 10 SI WA NOT_NAMED 1956-02-01 09:00:00 TS -17.2157 112.105 main 562 553 P_____P__PP___ SH151956 -17.1923 112.015 -1 -17.2699 112.381 -17.1923 112.015 TC -17.2081 112.007 7 13 241
1956028S10122 1956 10 SI WA NOT_NAMED 1956-02-01 11:00:00 TS -17.4352 111.689 main 557 547 P_____P__PO___ SH151956 -17.3973 111.608 -1 -17.5464 111.941 -17.3973 111.608 TC -17.4000 111.600 7 14 241
1956028S10122 1956 10 SI WA NOT_NAMED 1956-02-01 12:00:00 TS -17.5475 111.476 main 557 548 O_____P__OP___ jtwc_sh SH151956 -17.5000 111.400 -1 -17.6836 111.719 -17.5000 111.400 TC -17.5066 111.386 7 14 242
1956028S10122 1956 10 SI WA NOT_NAMED 1956-02-01 15:00:00 TS -17.8805 110.820 main 558 556 P_____P__PP___ SH151956 -17.7999 110.750 -1 -18.0859 111.051 -17.7999 110.750 TC -17.8361 110.729 7 14 242
1956028S10122 1956 10 SI WA NOT_NAMED 1956-02-01 18:00:00 TS -18.2058 110.168 main 573 572 O_____P__OP___ jtwc_sh SH151956 -18.1000 110.100 -1 -18.4653 110.394 -18.1000 110.100 TC -18.1578 110.077 7 14 242
1956028S10122 1956 10 SI WA NOT_NAMED 1956-02-01 21:00:00 TS -18.5286 109.535 main 604 597 P_____P__PP___ SH151956 -18.4300 109.455 -1 -18.8109 109.765 -18.4300 109.455 TC -18.4434 109.465 7 13 242
1956028S10122 1956 10 SI WA NOT_NAMED 1956-02-01 23:00:00 TS -18.7157 109.152 main 615 615 P_____P__PO___ SH151956 -18.6229 109.069 -1 -19.0170 109.370 -18.6229 109.069 TC -18.6000 109.100 7 12 241
1956028S10122 1956 10 SI WA NOT_NAMED 1956-02-02 00:00:00 TS -18.8094 108.993 main 625 625 O_____P__OP___ jtwc_sh SH151956 -18.7000 108.900 -1 -19.1116 109.182 -18.7000 108.900 TC -18.6536 108.938 7 10 239
1956028S10122 1956 10 SI WA NOT_NAMED 1956-02-02 01:00:00 TS -18.8866 108.850 980 bom main 637 637 P_____O__PP___ SH151956 -18.7560 108.755 -1 -19.2000 109.000 980 4 -18.7560 108.755 TC -18.6984 108.787 7 9 244
1956028S10122 1956 10 SI WA NOT_NAMED 1956-02-02 03:00:00 TS -18.9928 108.588 main 649 649 P_____P__PP___ SH151956 -18.8297 108.512 -1 -19.3387 108.677 -18.8297 108.512 TC -18.7682 108.508 7 8 249
1956028S10122 1956 10 SI WA NOT_NAMED 1956-02-02 06:00:00 TS -19.1124 108.228 main 680 680 O_____P__OP___ jtwc_sh SH151956 -18.9000 108.200 -1 -19.5071 108.231 -18.9000 108.200 TC -18.8453 108.141 7 7 252
1956028S10122 1956 10 SI WA NOT_NAMED 1956-02-02 09:00:00 TS -19.2098 107.862 main 703 703 P_____P__PP___ SH151956 -18.9774 107.850 -1 -19.6358 107.827 -18.9774 107.850 TC -18.9252 107.812 7 7 253
1956028S10122 1956 10 SI WA NOT_NAMED 1956-02-02 11:00:00 TS -19.2819 107.626 main 723 723 P_____P__PO___ SH151956 -19.0495 107.617 -1 -19.7037 107.579 -19.0495 107.617 TC -19.0000 107.600 7 7 251
1956028S10122 1956 10 SI WA NOT_NAMED 1956-02-02 12:00:00 TS -19.3281 107.506 main 732 732 O_____P__OP___ jtwc_sh SH151956 -19.1000 107.500 -1 -19.7332 107.461 -19.1000 107.500 TC -19.0656 107.474 7 8 244
1956028S10122 1956 10 SI WA NOT_NAMED 1956-02-02 15:00:00 TS -19.5049 107.151 main 748 748 P_____P__PP___ SH151956 -19.3425 107.143 -1 -19.8079 107.128 -19.3425 107.143 TC -19.2932 107.103 7 7 241
1956028S10122 1956 10 SI WA NOT_NAMED 1956-02-02 18:00:00 TS -19.6872 106.817 main 775 775 O_____P__OP___ jtwc_sh SH151956 -19.6000 106.800 -1 -19.8682 106.824 -19.6000 106.800 TC -19.5399 106.758 7 7 242
1956028S10122 1956 10 SI WA NOT_NAMED 1956-02-02 21:00:00 TS -19.8305 106.504 main 799 795 P_____P__PP___ SH151956 -19.7725 106.462 -1 -19.9225 106.544 -19.7725 106.462 TC -19.7712 106.460 7 6 244
1956028S10122 1956 10 SI WA NOT_NAMED 1956-02-02 23:00:00 TS -19.9105 106.322 main 814 814 P_____P__PO___ SH151956 -19.8610 106.275 -1 -19.9595 106.368 -19.8610 106.275 TC -19.9000 106.300 7 5 245
1956028S10122 1956 10 SI WA NOT_NAMED 1956-02-03 00:00:00 TS -19.9446 106.244 main 823 819 O_____P__OP___ jtwc_sh SH151956 -19.9000 106.200 -1 -19.9792 106.283 -19.9000 106.200 TC -19.9437 106.239 7 5 244
1956028S10122 1956 10 SI WA NOT_NAMED 1956-02-03 01:00:00 TS -19.9788 106.176 982 bom main 819 819 P_____O__PP___ SH151956 -19.9416 106.141 -1 -20.0000 106.200 982 -19.9416 106.141 TC -19.9813 106.187 7 4 241
1956028S10122 1956 10 SI WA NOT_NAMED 1956-02-03 03:00:00 TS -20.0415 106.060 main 829 829 P_____P__PP___ SH151956 -20.0149 106.062 -1 -20.0459 106.038 -20.0149 106.062 TC -20.0415 106.106 7 3 239
1956028S10122 1956 10 SI WA NOT_NAMED 1956-02-03 06:00:00 TS -20.1231 105.923 main 844 840 O_____P__OP___ jtwc_sh SH151956 -20.1000 106.000 -1 -20.1248 105.805 -20.1000 106.000 TC -20.1063 106.022 7 3 238
1956028S10122 1956 10 SI WA NOT_NAMED 1956-02-03 09:00:00 TS -20.1911 105.803 main 850 850 P_____P__PP___ SH151956 -20.1500 105.957 -1 -20.2143 105.582 -20.1500 105.957 TC -20.1598 105.954 7 3 239
1956028S10122 1956 10 SI WA NOT_NAMED 1956-02-03 11:00:00 TS -20.2375 105.722 main 860 856 P_____P__PO___ SH151956 -20.1802 105.925 -1 -20.2790 105.438 -20.1802 105.925 TC -20.2000 105.900 7 3 238
1956028S10122 1956 10 SI WA NOT_NAMED 1956-02-03 12:00:00 TS -20.2639 105.677 main 856 856 O_____P__OP___ jtwc_sh SH151956 -20.2000 105.900 -1 -20.3126 105.368 -20.2000 105.900 TC -20.2250 105.864 7 3 237
1956028S10122 1956 10 SI WA NOT_NAMED 1956-02-03 15:00:00 TS -20.3582 105.521 main 873 873 P_____P__PP___ SH151956 -20.2925 105.773 -1 -20.4182 105.161 -20.2925 105.773 TC -20.3035 105.748 7 4 237
1956028S10122 1956 10 SI WA NOT_NAMED 1956-02-03 18:00:00 TS -20.4625 105.347 main 889 889 O_____P__OP___ jtwc_sh SH151956 -20.4000 105.600 -1 -20.5292 104.959 -20.4000 105.600 TC -20.3945 105.611 7 4 238
1956028S10122 1956 10 SI WA NOT_NAMED 1956-02-03 21:00:00 TS -20.5563 105.185 main 896 896 P_____P__PP___ SH151956 -20.4849 105.422 -1 -20.6440 104.761 -20.4849 105.422 TC -20.5077 105.439 7 3 236
1956028S10122 1956 10 SI WA NOT_NAMED 1956-02-03 23:00:00 TS -20.6198 105.097 main 906 906 P_____P__PO___ SH151956 -20.5552 105.281 -1 -20.7218 104.630 -20.5552 105.281 TC -20.6000 105.300 7 3 226
1956028S10122 1956 10 SI WA NOT_NAMED 1956-02-04 00:00:00 TS -20.6480 105.080 main 906 903 O_____P__OP___ jtwc_sh SH151956 -20.6000 105.200 -1 -20.7609 104.565 -20.6000 105.200 TC -20.6496 105.218 7 2 0
1956028S10122 1956 10 SI WA NOT_NAMED 1956-02-04 01:00:00 TS -20.6794 105.070 bom main 903 903 P_____O__PP___ SH151956 -20.6526 105.111 -1 -20.8000 104.500 -20.6526 105.111 TC -20.7028 105.129 7 4 226
1956028S10122 1956 10 SI WA NOT_NAMED 1956-02-04 03:00:00 TS -20.7914 104.922 main 920 920 P________PP___ SH151956 -20.7775 104.915 -1 -20.7775 104.915 TC -20.8191 104.937 7 7 233
1956028S10122 1956 10 SI WA NOT_NAMED 1956-02-04 06:00:00 TS -21.0055 104.608 main 945 945 O________OP___ jtwc_sh SH151956 -21.0000 104.600 -1 -21.0000 104.600 TC -21.0166 104.624 7 7 233
1956028S10122 1956 10 SI WA NOT_NAMED 1956-02-04 09:00:00 TS -21.2364 104.296 main 971 969 P________PP___ SH151956 -21.2350 104.292 -1 -21.2350 104.292 TC -21.2392 104.304 7 7 230
1956028S10122 1956 10 SI WA NOT_NAMED 1956-02-04 11:00:00 TS -21.4056 104.096 main 988 988 P________PO___ SH151956 -21.4083 104.094 -1 -21.4083 104.094 TC -21.4000 104.100 7 8 227
1956028S10122 1956 10 SI WA NOT_NAMED 1956-02-04 12:00:00 TS -21.4963 103.998 main 996 996 O________OP___ jtwc_sh SH151956 -21.5000 104.000 -1 -21.5000 104.000 TC -21.4890 103.993 7 8 222
1956028S10122 1956 10 SI WA NOT_NAMED 1956-02-04 15:00:00 TS -21.7919 103.715 main 1022 1021 P________PP___ SH151956 -21.8000 103.735 -1 -21.8000 103.735 TC -21.7757 103.676 7 8 220
1956028S10122 1956 10 SI WA NOT_NAMED 1956-02-04 18:00:00 TS -22.0899 103.464 main 1039 1039 O________OP___ jtwc_sh SH151956 -22.1000 103.500 -1 -22.1000 103.500 TC -22.0698 103.393 7 7 218
1956028S10122 1956 10 SI WA NOT_NAMED 1956-02-04 21:00:00 TS -22.3627 103.231 main 1063 1061 P________PP___ SH151956 -22.3725 103.255 -1 -22.3725 103.255 TC -22.3431 103.182 7 6 216
1956028S10122 1956 10 SI WA NOT_NAMED 1956-02-04 23:00:00 TS -22.5205 103.124 main 1071 1068 P________PO___ SH151956 -22.5307 103.136 -1 -22.5307 103.136 TC -22.5000 103.100 7 5 209
1956028S10122 1956 10 SI WA NOT_NAMED 1956-02-05 00:00:00 TS -22.5893 103.092 main 1068 1063 O________OP___ jtwc_sh SH151956 -22.6000 103.100 -1 -22.6000 103.100 TC -22.5678 103.077 7 4 190
1956028S10122 1956 10 SI WA NOT_NAMED 1956-02-05 03:00:00 TS -22.7669 103.088 main 1063 1051 P________PP___ SH151956 -22.7799 103.090 -1 -22.7799 103.090 TC -22.7408 103.084 7 3 162
1956028S10122 1956 10 SI WA NOT_NAMED 1956-02-05 06:00:00 TS -22.8902 103.195 main 1051 1029 O________OP___ jtwc_sh SH151956 -22.9000 103.200 -1 -22.9000 103.200 TC -22.8707 103.184 7 3 127
1956028S10122 1956 10 SI WA NOT_NAMED 1956-02-05 09:00:00 TS -22.9636 103.365 main 1029 1019 P________PP___ SH151956 -22.9650 103.370 -1 -22.9650 103.370 TC -22.9607 103.356 7 4 109
1956028S10122 1956 10 SI WA NOT_NAMED 1956-02-05 11:00:00 TS -22.9924 103.513 main 1019 1009 P________PO___ SH151956 -22.9886 103.520 -1 -22.9886 103.520 TC -23.0000 103.500 7 4 101
1956028S10122 1956 10 SI WA NOT_NAMED 1956-02-05 12:00:00 TS -23.0055 103.591 main 1009 989 O________OP___ jtwc_sh SH151956 -23.0000 103.600 -1 -23.0000 103.600 TC -23.0138 103.578 7 5 99
1956028S10122 1956 10 SI WA NOT_NAMED 1956-02-05 15:00:00 TS -23.0401 103.840 main 989 956 P________PP___ SH151956 -23.0451 103.847 -1 -23.0451 103.847 TC -23.0351 103.833 7 5 97
1956028S10122 1956 10 SI WA NOT_NAMED 1956-02-05 18:00:00 TS -23.0597 104.106 main 956 928 O________OP___ jtwc_sh SH151956 -23.1000 104.100 -1 -23.1000 104.100 TC -23.0328 104.110 7 5 87
1956028S10122 1956 10 SI WA NOT_NAMED 1956-02-05 21:00:00 NR -23.0156 104.402 main 928 908 __________P___ SH151956 -1 TC -23.0156 104.402 7 6 83
1956028S10122 1956 10 SI WA NOT_NAMED 1956-02-05 23:00:00 NR -23.0000 104.600 main 908 __________O___ SH151956 -1 TC -23.0000 104.600 7 5 85

About IBTrACS Database

This database is a web-friendly format of International Best Track Archive for Climate Stewardship (IBTrACS), a global best track data archive curated by NOAA dating back to 1842.

Updated: 2021-12-06